createdAt,value
2023-03-26T00:00:15.715Z,1000.601
2023-03-26T00:00:45.718Z,1000.597
2023-03-26T00:01:15.773Z,1000.593
2023-03-26T00:01:45.767Z,1000.587
2023-03-26T00:02:15.761Z,1000.589
2023-03-26T00:02:45.754Z,1000.589
2023-03-26T00:03:15.732Z,1000.586
2023-03-26T00:03:45.718Z,1000.593
2023-03-26T00:04:15.722Z,1000.591
2023-03-26T00:04:45.720Z,1000.583
2023-03-26T00:05:15.739Z,1000.59
2023-03-26T00:05:45.938Z,1000.598
2023-03-26T00:06:15.729Z,1000.602
2023-03-26T00:06:45.713Z,1000.606
2023-03-26T00:07:15.724Z,1000.609
2023-03-26T00:07:45.716Z,1000.618
2023-03-26T00:08:15.721Z,1000.621
2023-03-26T00:08:45.812Z,1000.621
2023-03-26T00:09:15.728Z,1000.625
2023-03-26T00:09:45.716Z,1000.629
2023-03-26T00:10:15.731Z,1000.624
2023-03-26T00:10:45.714Z,1000.629
2023-03-26T00:11:15.717Z,1000.632
2023-03-26T00:11:45.713Z,1000.633
2023-03-26T00:12:15.714Z,1000.634
2023-03-26T00:12:45.718Z,1000.633
2023-03-26T00:13:15.725Z,1000.623
2023-03-26T00:13:45.722Z,1000.62
2023-03-26T00:14:15.719Z,1000.627
2023-03-26T00:14:45.722Z,1000.622
2023-03-26T00:15:15.717Z,1000.625
2023-03-26T00:15:45.719Z,1000.618
2023-03-26T00:16:15.782Z,1000.613
2023-03-26T00:16:45.740Z,1000.611
2023-03-26T00:17:15.713Z,1000.617
2023-03-26T00:17:45.760Z,1000.625
2023-03-26T00:18:15.720Z,1000.629
2023-03-26T00:18:45.713Z,1000.625
2023-03-26T00:19:15.747Z,1000.632
2023-03-26T00:19:45.715Z,1000.627
2023-03-26T00:20:15.713Z,1000.618
2023-03-26T00:20:45.755Z,1000.613
2023-03-26T00:21:15.760Z,1000.607
2023-03-26T00:21:45.751Z,1000.599
2023-03-26T00:22:15.721Z,1000.603
2023-03-26T00:22:45.725Z,1000.607
2023-03-26T00:23:15.730Z,1000.61
2023-03-26T00:23:45.721Z,1000.6
2023-03-26T00:24:15.720Z,1000.589
2023-03-26T00:24:45.724Z,1000.58
2023-03-26T00:25:15.714Z,1000.57
2023-03-26T00:25:45.941Z,1000.562
2023-03-26T00:26:15.718Z,1000.562
2023-03-26T00:26:45.722Z,1000.558
2023-03-26T00:27:15.742Z,1000.55
2023-03-26T00:27:45.748Z,1000.558
2023-03-26T00:28:15.732Z,1000.565
2023-03-26T00:28:45.731Z,1000.566
2023-03-26T00:29:15.752Z,1000.562
2023-03-26T00:29:45.725Z,1000.569
2023-03-26T00:30:15.718Z,1000.574
2023-03-26T00:30:45.725Z,1000.586
2023-03-26T00:31:15.751Z,1000.59
2023-03-26T00:31:45.723Z,1000.595
2023-03-26T00:32:15.729Z,1000.598
2023-03-26T00:32:45.742Z,1000.597
2023-03-26T00:33:16.650Z,1000.596
2023-03-26T00:33:45.725Z,1000.593
2023-03-26T00:34:15.810Z,1000.592
2023-03-26T00:34:45.729Z,1000.579
2023-03-26T00:35:15.728Z,1000.575
2023-03-26T00:35:45.747Z,1000.575
2023-03-26T00:36:15.776Z,1000.573
2023-03-26T00:36:45.724Z,1000.565
2023-03-26T00:37:15.738Z,1000.564
2023-03-26T00:37:45.726Z,1000.557
2023-03-26T00:38:15.722Z,1000.547
2023-03-26T00:38:45.726Z,1000.54
2023-03-26T00:39:15.727Z,1000.544
2023-03-26T00:39:45.736Z,1000.539
2023-03-26T00:40:15.731Z,1000.538
2023-03-26T00:40:45.730Z,1000.556
2023-03-26T00:41:15.729Z,1000.567
2023-03-26T00:41:45.734Z,1000.572
2023-03-26T00:42:15.736Z,1000.582
2023-03-26T00:42:45.735Z,1000.585
2023-03-26T00:43:15.733Z,1000.593
2023-03-26T00:43:45.757Z,1000.591
2023-03-26T00:44:15.735Z,1000.61
2023-03-26T00:44:45.744Z,1000.618
2023-03-26T00:45:15.729Z,1000.615
2023-03-26T00:45:45.760Z,1000.619
2023-03-26T00:46:15.867Z,1000.629
2023-03-26T00:46:45.774Z,1000.631
2023-03-26T00:47:15.725Z,1000.637
2023-03-26T00:47:45.757Z,1000.64
2023-03-26T00:48:15.776Z,1000.64
2023-03-26T00:48:46.233Z,1000.641
2023-03-26T00:49:15.731Z,1000.636
2023-03-26T00:49:45.730Z,1000.626
2023-03-26T00:50:15.752Z,1000.632
2023-03-26T00:50:45.736Z,1000.633
2023-03-26T00:51:15.945Z,1000.629
2023-03-26T00:51:45.732Z,1000.629
2023-03-26T00:52:15.733Z,1000.625
2023-03-26T00:52:45.736Z,1000.628
2023-03-26T00:53:15.749Z,1000.62
2023-03-26T00:53:45.742Z,1000.615
2023-03-26T00:54:15.766Z,1000.619
2023-03-26T00:54:45.733Z,1000.61
2023-03-26T00:55:15.731Z,1000.616
2023-03-26T00:55:45.740Z,1000.622
2023-03-26T00:56:15.748Z,1000.622
2023-03-26T00:56:45.768Z,1000.626
2023-03-26T00:57:25.622Z,1000.632
2023-03-26T00:57:46.693Z,1000.63
2023-03-26T00:58:15.740Z,1000.637
2023-03-26T00:58:45.739Z,1000.632
2023-03-26T00:59:15.743Z,1000.643
2023-03-26T00:59:45.731Z,1000.645
2023-03-26T01:00:15.747Z,1000.645
2023-03-26T01:00:46.847Z,1000.657
2023-03-26T01:01:15.777Z,1000.66
2023-03-26T01:01:45.833Z,1000.664
2023-03-26T01:02:15.798Z,1000.669
2023-03-26T01:02:45.853Z,1000.679
2023-03-26T01:03:26.576Z,1000.674
2023-03-26T01:03:57.092Z,1000.678
2023-03-26T01:04:16.692Z,1000.672
2023-03-26T01:04:45.852Z,1000.676
2023-03-26T01:05:15.772Z,1000.669
2023-03-26T01:05:45.738Z,1000.668
2023-03-26T01:06:15.731Z,1000.673
2023-03-26T01:06:45.734Z,1000.669
2023-03-26T01:07:15.745Z,1000.674
2023-03-26T01:07:45.734Z,1000.662
2023-03-26T01:08:15.733Z,1000.655
2023-03-26T01:08:45.785Z,1000.668
2023-03-26T01:09:15.751Z,1000.684
2023-03-26T01:09:45.751Z,1000.697
2023-03-26T01:10:15.751Z,1000.713
2023-03-26T01:10:45.738Z,1000.723
2023-03-26T01:11:15.749Z,1000.722
2023-03-26T01:11:45.787Z,1000.734
2023-03-26T01:12:15.740Z,1000.735
2023-03-26T01:12:45.741Z,1000.732
2023-03-26T01:13:15.730Z,1000.726
2023-03-26T01:13:45.736Z,1000.738
2023-03-26T01:14:15.735Z,1000.744
2023-03-26T01:14:45.737Z,1000.763
2023-03-26T01:15:15.740Z,1000.776
2023-03-26T01:15:45.777Z,1000.784
2023-03-26T01:16:15.752Z,1000.788
2023-03-26T01:16:45.736Z,1000.798
2023-03-26T01:17:15.738Z,1000.802
2023-03-26T01:17:45.780Z,1000.799
2023-03-26T01:18:15.734Z,1000.789
2023-03-26T01:18:45.745Z,1000.791
2023-03-26T01:19:15.734Z,1000.798
2023-03-26T01:19:45.738Z,1000.799
2023-03-26T01:20:15.733Z,1000.809
2023-03-26T01:20:45.735Z,1000.812
2023-03-26T01:21:15.735Z,1000.826
2023-03-26T01:21:45.738Z,1000.831
2023-03-26T01:22:15.737Z,1000.836
2023-03-26T01:22:45.737Z,1000.837
2023-03-26T01:23:15.741Z,1000.84
2023-03-26T01:23:45.736Z,1000.838
2023-03-26T01:24:15.739Z,1000.841
2023-03-26T01:24:45.745Z,1000.844
2023-03-26T01:25:15.735Z,1000.847
2023-03-26T01:25:45.761Z,1000.85
2023-03-26T01:26:15.741Z,1000.845
2023-03-26T01:26:45.739Z,1000.85
2023-03-26T01:27:15.749Z,1000.846
2023-03-26T01:27:45.737Z,1000.846
2023-03-26T01:28:15.738Z,1000.841
2023-03-26T01:28:45.738Z,1000.844
2023-03-26T01:29:15.738Z,1000.843
2023-03-26T01:29:45.741Z,1000.851
2023-03-26T01:30:15.742Z,1000.851
2023-03-26T01:30:45.747Z,1000.844
2023-03-26T01:31:15.745Z,1000.849
2023-03-26T01:31:45.741Z,1000.843
2023-03-26T01:32:15.745Z,1000.84
2023-03-26T01:32:45.796Z,1000.837
2023-03-26T01:33:15.822Z,1000.835
2023-03-26T01:33:45.870Z,1000.823
2023-03-26T01:34:15.778Z,1000.82
2023-03-26T01:34:45.737Z,1000.821
2023-03-26T01:35:15.740Z,1000.82
2023-03-26T01:35:45.848Z,1000.817
2023-03-26T01:36:15.738Z,1000.814
2023-03-26T01:36:45.740Z,1000.823
2023-03-26T01:37:15.752Z,1000.827
2023-03-26T01:37:45.744Z,1000.819
2023-03-26T01:38:15.749Z,1000.818
2023-03-26T01:38:45.742Z,1000.813
2023-03-26T01:39:15.738Z,1000.815
2023-03-26T01:39:45.742Z,1000.818
2023-03-26T01:40:15.757Z,1000.825
2023-03-26T01:40:45.754Z,1000.84
2023-03-26T01:41:15.743Z,1000.848
2023-03-26T01:41:45.743Z,1000.845
2023-03-26T01:42:15.745Z,1000.845
2023-03-26T01:42:45.735Z,1000.839
2023-03-26T01:43:15.739Z,1000.841
2023-03-26T01:43:45.738Z,1000.843
2023-03-26T01:44:15.740Z,1000.841
2023-03-26T01:44:45.737Z,1000.85
2023-03-26T01:45:15.750Z,1000.85
2023-03-26T01:45:45.743Z,1000.855
2023-03-26T01:46:15.788Z,1000.855
2023-03-26T01:46:45.782Z,1000.859
2023-03-26T01:47:15.739Z,1000.858
2023-03-26T01:47:45.808Z,1000.861
2023-03-26T01:48:15.736Z,1000.866
2023-03-26T01:48:45.753Z,1000.868
2023-03-26T01:49:15.737Z,1000.869
2023-03-26T01:49:45.742Z,1000.862
2023-03-26T01:50:15.751Z,1000.872
2023-03-26T01:50:45.743Z,1000.883
2023-03-26T01:51:15.740Z,1000.888
2023-03-26T01:51:45.744Z,1000.9
2023-03-26T01:52:15.745Z,1000.896
2023-03-26T01:52:45.741Z,1000.915
2023-03-26T01:53:15.742Z,1000.917
2023-03-26T01:53:45.757Z,1000.925
2023-03-26T01:54:15.754Z,1000.937
2023-03-26T01:54:45.746Z,1000.942
2023-03-26T01:55:15.742Z,1000.947
2023-03-26T01:55:45.747Z,1000.951
2023-03-26T01:56:15.752Z,1000.955
2023-03-26T01:56:45.767Z,1000.968
2023-03-26T01:57:15.746Z,1000.985
2023-03-26T01:57:45.746Z,1000.985
2023-03-26T01:58:15.744Z,1001.01
2023-03-26T01:58:45.755Z,1001.025
2023-03-26T01:59:15.742Z,1001.026
2023-03-26T01:59:45.750Z,1001.034
2023-03-26T02:00:15.742Z,1001.042
2023-03-26T02:00:45.748Z,1001.056
2023-03-26T02:01:15.814Z,1001.061
2023-03-26T02:01:45.818Z,1001.066
2023-03-26T02:02:15.821Z,1001.064
2023-03-26T02:02:45.844Z,1001.065
2023-03-26T02:03:15.867Z,1001.061
2023-03-26T02:03:45.779Z,1001.055
2023-03-26T02:04:15.749Z,1001.052
2023-03-26T02:04:45.745Z,1001.045
2023-03-26T02:05:15.743Z,1001.038
2023-03-26T02:05:45.747Z,1001.024
2023-03-26T02:06:15.750Z,1001.022
2023-03-26T02:06:45.775Z,1001.026
2023-03-26T02:07:15.758Z,1001.024
2023-03-26T02:07:45.759Z,1001.035
2023-03-26T02:08:15.773Z,1001.028
2023-03-26T02:08:45.742Z,1001.034
2023-03-26T02:09:15.743Z,1001.026
2023-03-26T02:09:45.745Z,1001.022
2023-03-26T02:10:15.749Z,1001.019
2023-03-26T02:10:45.754Z,1001.004
2023-03-26T02:11:16.562Z,1000.994
2023-03-26T02:11:45.746Z,1000.98
2023-03-26T02:12:15.745Z,1000.973
2023-03-26T02:12:45.758Z,1000.975
2023-03-26T02:13:15.747Z,1000.984
2023-03-26T02:13:45.746Z,1000.99
2023-03-26T02:14:15.754Z,1000.999
2023-03-26T02:14:45.744Z,1001.005
2023-03-26T02:15:15.745Z,1001.015
2023-03-26T02:15:45.745Z,1001.012
2023-03-26T02:16:15.768Z,1001.022
2023-03-26T02:16:45.800Z,1001.019
2023-03-26T02:17:15.750Z,1001.021
2023-03-26T02:17:45.797Z,1001.013
2023-03-26T02:18:15.745Z,1001.011
2023-03-26T02:18:45.780Z,1001.006
2023-03-26T02:19:16.103Z,1000.996
2023-03-26T02:19:45.756Z,1000.99
2023-03-26T02:20:15.750Z,1000.988
2023-03-26T02:20:45.753Z,1000.998
2023-03-26T02:21:15.747Z,1001
2023-03-26T02:21:45.745Z,1001.008
2023-03-26T02:22:15.927Z,1001.025
2023-03-26T02:22:45.930Z,1001.044
2023-03-26T02:23:15.754Z,1001.063
2023-03-26T02:23:45.745Z,1001.069
2023-03-26T02:24:15.749Z,1001.083
2023-03-26T02:24:45.751Z,1001.103
2023-03-26T02:25:15.758Z,1001.125
2023-03-26T02:25:45.741Z,1001.132
2023-03-26T02:26:15.754Z,1001.149
2023-03-26T02:26:45.754Z,1001.169
2023-03-26T02:27:15.752Z,1001.167
2023-03-26T02:27:45.752Z,1001.178
2023-03-26T02:28:15.741Z,1001.185
2023-03-26T02:28:45.760Z,1001.197
2023-03-26T02:29:15.747Z,1001.2
2023-03-26T02:29:45.761Z,1001.199
2023-03-26T02:30:15.762Z,1001.203
2023-03-26T02:30:45.744Z,1001.208
2023-03-26T02:31:15.782Z,1001.204
2023-03-26T02:31:45.766Z,1001.198
2023-03-26T02:32:15.754Z,1001.206
2023-03-26T02:32:45.780Z,1001.209
2023-03-26T02:33:15.764Z,1001.214
2023-03-26T02:33:45.745Z,1001.209
2023-03-26T02:34:15.745Z,1001.219
2023-03-26T02:34:45.751Z,1001.207
2023-03-26T02:35:15.812Z,1001.212
2023-03-26T02:35:45.956Z,1001.21
2023-03-26T02:36:15.803Z,1001.212
2023-03-26T02:36:45.796Z,1001.214
2023-03-26T02:37:15.756Z,1001.202
2023-03-26T02:37:45.748Z,1001.207
2023-03-26T02:38:15.760Z,1001.206
2023-03-26T02:38:45.748Z,1001.209
2023-03-26T02:39:15.747Z,1001.2
2023-03-26T02:39:45.756Z,1001.204
2023-03-26T02:40:15.751Z,1001.215
2023-03-26T02:40:45.752Z,1001.218
2023-03-26T02:41:15.778Z,1001.233
2023-03-26T02:41:45.773Z,1001.23
2023-03-26T02:42:15.752Z,1001.213
2023-03-26T02:42:45.747Z,1001.199
2023-03-26T02:43:15.753Z,1001.18
2023-03-26T02:43:45.750Z,1001.167
2023-03-26T02:44:15.746Z,1001.162
2023-03-26T02:44:45.746Z,1001.14
2023-03-26T02:45:15.751Z,1001.121
2023-03-26T02:45:45.807Z,1001.117
2023-03-26T02:46:15.895Z,1001.095
2023-03-26T02:46:45.755Z,1001.092
2023-03-26T02:47:15.753Z,1001.098
2023-03-26T02:47:45.782Z,1001.095
2023-03-26T02:48:15.766Z,1001.078
2023-03-26T02:48:45.755Z,1001.075
2023-03-26T02:49:15.754Z,1001.077
2023-03-26T02:49:45.754Z,1001.078
2023-03-26T02:50:15.760Z,1001.085
2023-03-26T02:50:45.758Z,1001.093
2023-03-26T02:51:15.748Z,1001.097
2023-03-26T02:51:45.756Z,1001.102
2023-03-26T02:52:15.749Z,1001.105
2023-03-26T02:52:45.761Z,1001.102
2023-03-26T02:53:15.753Z,1001.099
2023-03-26T02:53:45.757Z,1001.098
2023-03-26T02:54:15.754Z,1001.102
2023-03-26T02:54:45.756Z,1001.1
2023-03-26T02:55:15.751Z,1001.099
2023-03-26T02:55:45.754Z,1001.095
2023-03-26T02:56:15.751Z,1001.084
2023-03-26T02:56:45.820Z,1001.081
2023-03-26T02:57:15.792Z,1001.08
2023-03-26T02:57:45.755Z,1001.075
2023-03-26T02:58:15.753Z,1001.08
2023-03-26T02:58:45.751Z,1001.092
2023-03-26T02:59:15.747Z,1001.1
2023-03-26T02:59:45.757Z,1001.105
2023-03-26T03:00:15.752Z,1001.112
2023-03-26T03:00:45.767Z,1001.114
2023-03-26T03:01:15.797Z,1001.117
2023-03-26T03:01:45.760Z,1001.113
2023-03-26T03:02:15.820Z,1001.116
2023-03-26T03:02:45.801Z,1001.123
2023-03-26T03:03:15.799Z,1001.128
2023-03-26T03:03:45.759Z,1001.129
2023-03-26T03:04:15.756Z,1001.124
2023-03-26T03:04:45.759Z,1001.136
2023-03-26T03:05:15.752Z,1001.152
2023-03-26T03:05:45.756Z,1001.154
2023-03-26T03:06:15.747Z,1001.158
2023-03-26T03:06:45.751Z,1001.157
2023-03-26T03:07:15.760Z,1001.17
2023-03-26T03:07:45.753Z,1001.186
2023-03-26T03:08:15.751Z,1001.19
2023-03-26T03:08:45.755Z,1001.202
2023-03-26T03:09:15.748Z,1001.212
2023-03-26T03:09:45.757Z,1001.216
2023-03-26T03:10:15.756Z,1001.227
2023-03-26T03:10:45.750Z,1001.237
2023-03-26T03:11:15.760Z,1001.236
2023-03-26T03:11:45.773Z,1001.233
2023-03-26T03:12:15.757Z,1001.23
2023-03-26T03:12:45.755Z,1001.225
2023-03-26T03:13:15.755Z,1001.217
2023-03-26T03:13:45.760Z,1001.218
2023-03-26T03:14:15.757Z,1001.212
2023-03-26T03:14:45.753Z,1001.21
2023-03-26T03:15:15.755Z,1001.209
2023-03-26T03:15:45.754Z,1001.204
2023-03-26T03:16:15.778Z,1001.206
2023-03-26T03:16:45.798Z,1001.206
2023-03-26T03:17:15.762Z,1001.2
2023-03-26T03:17:45.789Z,1001.197
2023-03-26T03:18:15.775Z,1001.186
2023-03-26T03:18:45.754Z,1001.178
2023-03-26T03:19:15.775Z,1001.18
2023-03-26T03:19:45.762Z,1001.186
2023-03-26T03:20:15.773Z,1001.184
2023-03-26T03:20:45.751Z,1001.172
2023-03-26T03:21:15.774Z,1001.171
2023-03-26T03:21:45.760Z,1001.17
2023-03-26T03:22:15.765Z,1001.171
2023-03-26T03:22:45.781Z,1001.178
2023-03-26T03:23:15.758Z,1001.188
2023-03-26T03:23:45.762Z,1001.2
2023-03-26T03:24:15.761Z,1001.188
2023-03-26T03:24:45.758Z,1001.194
2023-03-26T03:25:15.755Z,1001.191
2023-03-26T03:25:45.772Z,1001.195
2023-03-26T03:26:15.814Z,1001.198
2023-03-26T03:26:45.776Z,1001.196
2023-03-26T03:27:15.755Z,1001.184
2023-03-26T03:27:45.760Z,1001.177
2023-03-26T03:28:15.758Z,1001.16
2023-03-26T03:28:45.764Z,1001.141
2023-03-26T03:29:15.770Z,1001.12
2023-03-26T03:29:45.766Z,1001.108
2023-03-26T03:30:15.770Z,1001.107
2023-03-26T03:30:45.871Z,1001.104
2023-03-26T03:31:15.791Z,1001.114
2023-03-26T03:31:45.764Z,1001.117
2023-03-26T03:32:15.764Z,1001.12
2023-03-26T03:32:45.840Z,1001.126
2023-03-26T03:33:15.761Z,1001.11
2023-03-26T03:33:45.787Z,1001.103
2023-03-26T03:34:15.766Z,1001.096
2023-03-26T03:34:45.761Z,1001.096
2023-03-26T03:35:15.770Z,1001.099
2023-03-26T03:35:45.810Z,1001.095
2023-03-26T03:36:20.483Z,1001.105
2023-03-26T03:36:46.901Z,1001.113
2023-03-26T03:37:15.764Z,1001.121
2023-03-26T03:37:45.761Z,1001.122
2023-03-26T03:38:15.764Z,1001.12
2023-03-26T03:38:45.772Z,1001.121
2023-03-26T03:39:15.763Z,1001.122
2023-03-26T03:39:45.763Z,1001.124
2023-03-26T03:40:15.775Z,1001.123
2023-03-26T03:40:45.787Z,1001.129
2023-03-26T03:41:15.788Z,1001.127
2023-03-26T03:41:45.760Z,1001.122
2023-03-26T03:42:15.765Z,1001.113
2023-03-26T03:42:45.761Z,1001.101
2023-03-26T03:43:15.774Z,1001.1
2023-03-26T03:43:45.771Z,1001.098
2023-03-26T03:44:15.762Z,1001.093
2023-03-26T03:44:45.762Z,1001.078
2023-03-26T03:45:15.778Z,1001.073
2023-03-26T03:45:45.793Z,1001.077
2023-03-26T03:46:15.833Z,1001.083
2023-03-26T03:46:45.926Z,1001.079
2023-03-26T03:47:15.784Z,1001.08
2023-03-26T03:47:45.799Z,1001.081
2023-03-26T03:48:15.771Z,1001.076
2023-03-26T03:48:45.775Z,1001.079
2023-03-26T03:49:15.767Z,1001.076
2023-03-26T03:49:45.772Z,1001.082
2023-03-26T03:50:15.772Z,1001.082
2023-03-26T03:50:45.770Z,1001.083
2023-03-26T03:51:15.775Z,1001.077
2023-03-26T03:51:45.771Z,1001.086
2023-03-26T03:52:15.783Z,1001.099
2023-03-26T03:52:45.782Z,1001.115
2023-03-26T03:53:15.776Z,1001.125
2023-03-26T03:53:45.768Z,1001.127
2023-03-26T03:54:15.766Z,1001.127
2023-03-26T03:54:45.767Z,1001.125
2023-03-26T03:55:15.766Z,1001.139
2023-03-26T03:55:45.772Z,1001.148
2023-03-26T03:56:15.774Z,1001.151
2023-03-26T03:56:45.848Z,1001.158
2023-03-26T03:57:15.775Z,1001.165
2023-03-26T03:57:45.783Z,1001.158
2023-03-26T03:58:15.770Z,1001.166
2023-03-26T03:58:45.777Z,1001.167
2023-03-26T03:59:15.772Z,1001.177
2023-03-26T03:59:47.820Z,1001.18
2023-03-26T04:00:15.769Z,1001.185
2023-03-26T04:00:45.771Z,1001.191
2023-03-26T04:01:15.767Z,1001.198
2023-03-26T04:01:45.770Z,1001.206
2023-03-26T04:02:15.848Z,1001.213
2023-03-26T04:02:45.928Z,1001.228
2023-03-26T04:03:15.865Z,1001.225
2023-03-26T04:03:45.846Z,1001.225
2023-03-26T04:04:15.804Z,1001.228
2023-03-26T04:04:45.770Z,1001.223
2023-03-26T04:05:15.775Z,1001.217
2023-03-26T04:05:45.788Z,1001.206
2023-03-26T04:06:15.770Z,1001.205
2023-03-26T04:06:45.768Z,1001.207
2023-03-26T04:07:15.767Z,1001.212
2023-03-26T04:07:45.766Z,1001.217
2023-03-26T04:08:15.770Z,1001.216
2023-03-26T04:08:45.774Z,1001.208
2023-03-26T04:09:15.777Z,1001.213
2023-03-26T04:09:45.770Z,1001.198
2023-03-26T04:10:15.772Z,1001.184
2023-03-26T04:10:45.779Z,1001.183
2023-03-26T04:11:15.775Z,1001.195
2023-03-26T04:11:45.784Z,1001.184
2023-03-26T04:12:15.767Z,1001.186
2023-03-26T04:12:45.781Z,1001.184
2023-03-26T04:13:15.782Z,1001.178
2023-03-26T04:13:45.782Z,1001.184
2023-03-26T04:14:15.773Z,1001.186
2023-03-26T04:14:45.766Z,1001.18
2023-03-26T04:15:15.779Z,1001.178
2023-03-26T04:15:45.795Z,1001.167
2023-03-26T04:16:15.790Z,1001.163
2023-03-26T04:16:45.770Z,1001.162
2023-03-26T04:17:15.782Z,1001.155
2023-03-26T04:17:45.807Z,1001.144
2023-03-26T04:18:15.773Z,1001.146
2023-03-26T04:18:45.777Z,1001.137
2023-03-26T04:19:15.780Z,1001.128
2023-03-26T04:19:45.813Z,1001.126
2023-03-26T04:20:16.045Z,1001.127
2023-03-26T04:20:45.773Z,1001.124
2023-03-26T04:21:15.910Z,1001.127
2023-03-26T04:21:45.778Z,1001.126
2023-03-26T04:22:15.772Z,1001.122
2023-03-26T04:22:45.771Z,1001.123
2023-03-26T04:23:15.774Z,1001.128
2023-03-26T04:23:45.780Z,1001.132
2023-03-26T04:24:15.774Z,1001.138
2023-03-26T04:24:45.780Z,1001.134
2023-03-26T04:25:15.782Z,1001.123
2023-03-26T04:25:45.777Z,1001.123
2023-03-26T04:26:15.774Z,1001.12
2023-03-26T04:26:45.778Z,1001.119
2023-03-26T04:27:15.772Z,1001.113
2023-03-26T04:27:45.770Z,1001.105
2023-03-26T04:28:15.773Z,1001.102
2023-03-26T04:28:45.776Z,1001.106
2023-03-26T04:29:15.775Z,1001.1
2023-03-26T04:29:45.770Z,1001.101
2023-03-26T04:30:15.808Z,1001.113
2023-03-26T04:30:45.772Z,1001.125
2023-03-26T04:31:15.858Z,1001.133
2023-03-26T04:31:45.860Z,1001.142
2023-03-26T04:32:15.776Z,1001.137
2023-03-26T04:32:45.815Z,1001.132
2023-03-26T04:33:15.780Z,1001.124
2023-03-26T04:33:45.780Z,1001.107
2023-03-26T04:34:15.780Z,1001.087
2023-03-26T04:34:45.782Z,1001.075
2023-03-26T04:35:15.775Z,1001.062
2023-03-26T04:35:45.805Z,1001.052
2023-03-26T04:36:15.792Z,1001.035
2023-03-26T04:36:45.776Z,1001.023
2023-03-26T04:37:15.778Z,1001.028
2023-03-26T04:37:45.777Z,1001.032
2023-03-26T04:38:15.776Z,1001.044
2023-03-26T04:38:45.792Z,1001.051
2023-03-26T04:39:15.776Z,1001.07
2023-03-26T04:39:45.774Z,1001.073
2023-03-26T04:40:15.782Z,1001.073
2023-03-26T04:40:45.778Z,1001.071
2023-03-26T04:41:15.784Z,1001.083
2023-03-26T04:41:45.782Z,1001.098
2023-03-26T04:42:15.789Z,1001.104
2023-03-26T04:42:45.807Z,1001.112
2023-03-26T04:43:15.777Z,1001.122
2023-03-26T04:43:45.780Z,1001.124
2023-03-26T04:44:15.780Z,1001.131
2023-03-26T04:44:45.780Z,1001.133
2023-03-26T04:45:15.799Z,1001.149
2023-03-26T04:45:45.785Z,1001.161
2023-03-26T04:46:15.792Z,1001.163
2023-03-26T04:46:45.828Z,1001.157
2023-03-26T04:47:15.777Z,1001.157
2023-03-26T04:47:45.813Z,1001.151
2023-03-26T04:48:15.779Z,1001.143
2023-03-26T04:48:45.786Z,1001.143
2023-03-26T04:49:15.804Z,1001.111
2023-03-26T04:49:45.781Z,1001.1
2023-03-26T04:50:15.780Z,1001.093
2023-03-26T04:50:45.784Z,1001.087
2023-03-26T04:51:15.783Z,1001.083
2023-03-26T04:51:45.782Z,1001.094
2023-03-26T04:52:15.778Z,1001.088
2023-03-26T04:52:45.775Z,1001.084
2023-03-26T04:53:15.787Z,1001.082
2023-03-26T04:53:45.779Z,1001.075
2023-03-26T04:54:15.787Z,1001.062
2023-03-26T04:54:45.790Z,1001.063
2023-03-26T04:55:15.786Z,1001.057
2023-03-26T04:55:45.786Z,1001.063
2023-03-26T04:56:15.781Z,1001.093
2023-03-26T04:56:45.944Z,1001.108
2023-03-26T04:57:15.839Z,1001.122
2023-03-26T04:57:45.779Z,1001.125
2023-03-26T04:58:15.785Z,1001.13
2023-03-26T04:58:45.784Z,1001.121
2023-03-26T04:59:15.785Z,1001.112
2023-03-26T04:59:45.785Z,1001.094
2023-03-26T05:00:15.782Z,1001.087
2023-03-26T05:00:45.820Z,1001.088
2023-03-26T05:01:15.826Z,1001.087
2023-03-26T05:01:45.985Z,1001.083
2023-03-26T05:02:15.793Z,1001.091
2023-03-26T05:02:45.889Z,1001.092
2023-03-26T05:03:15.787Z,1001.088
2023-03-26T05:03:46.055Z,1001.081
2023-03-26T05:04:15.816Z,1001.08
2023-03-26T05:04:45.974Z,1001.097
2023-03-26T05:05:15.783Z,1001.106
2023-03-26T05:05:45.787Z,1001.114
2023-03-26T05:06:15.783Z,1001.122
2023-03-26T05:06:45.784Z,1001.105
2023-03-26T05:07:15.787Z,1001.107
2023-03-26T05:07:45.781Z,1001.098
2023-03-26T05:08:15.781Z,1001.09
2023-03-26T05:08:45.812Z,1001.094
2023-03-26T05:09:15.791Z,1001.082
2023-03-26T05:09:45.789Z,1001.077
2023-03-26T05:10:15.783Z,1001.074
2023-03-26T05:10:45.789Z,1001.063
2023-03-26T05:11:15.788Z,1001.063
2023-03-26T05:11:45.788Z,1001.067
2023-03-26T05:12:15.794Z,1001.085
2023-03-26T05:12:45.789Z,1001.087
2023-03-26T05:13:15.781Z,1001.092
2023-03-26T05:13:45.789Z,1001.088
2023-03-26T05:14:15.787Z,1001.077
2023-03-26T05:14:45.785Z,1001.063
2023-03-26T05:15:15.810Z,1001.052
2023-03-26T05:15:45.795Z,1001.043
2023-03-26T05:16:15.840Z,1001.037
2023-03-26T05:16:45.802Z,1001.017
2023-03-26T05:17:15.800Z,1001.001
2023-03-26T05:17:45.826Z,1000.995
2023-03-26T05:18:15.792Z,1000.99
2023-03-26T05:18:45.784Z,1000.987
2023-03-26T05:19:15.786Z,1000.989
2023-03-26T05:19:45.798Z,1000.995
2023-03-26T05:20:15.790Z,1000.985
2023-03-26T05:20:45.787Z,1000.979
2023-03-26T05:21:15.797Z,1000.982
2023-03-26T05:21:45.786Z,1000.995
2023-03-26T05:22:15.786Z,1001
2023-03-26T05:22:45.790Z,1001.024
2023-03-26T05:23:15.797Z,1001.043
2023-03-26T05:23:45.786Z,1001.05
2023-03-26T05:24:15.796Z,1001.069
2023-03-26T05:24:45.804Z,1001.092
2023-03-26T05:25:15.793Z,1001.115
2023-03-26T05:25:45.796Z,1001.143
2023-03-26T05:26:15.797Z,1001.151
2023-03-26T05:26:45.799Z,1001.158
2023-03-26T05:27:15.805Z,1001.18
2023-03-26T05:27:45.786Z,1001.189
2023-03-26T05:28:15.808Z,1001.192
2023-03-26T05:28:45.795Z,1001.195
2023-03-26T05:29:15.796Z,1001.203
2023-03-26T05:29:45.792Z,1001.201
2023-03-26T05:30:15.794Z,1001.206
2023-03-26T05:30:45.791Z,1001.205
2023-03-26T05:31:15.802Z,1001.194
2023-03-26T05:31:45.795Z,1001.185
2023-03-26T05:32:15.799Z,1001.179
2023-03-26T05:32:45.834Z,1001.207
2023-03-26T05:33:15.869Z,1001.218
2023-03-26T05:33:45.910Z,1001.219
2023-03-26T05:34:15.794Z,1001.224
2023-03-26T05:34:45.789Z,1001.219
2023-03-26T05:35:15.801Z,1001.241
2023-03-26T05:35:45.826Z,1001.246
2023-03-26T05:36:15.801Z,1001.232
2023-03-26T05:36:45.806Z,1001.215
2023-03-26T05:37:15.794Z,1001.194
2023-03-26T05:37:45.797Z,1001.188
2023-03-26T05:38:15.792Z,1001.193
2023-03-26T05:38:45.796Z,1001.194
2023-03-26T05:39:15.806Z,1001.192
2023-03-26T05:39:45.801Z,1001.185
2023-03-26T05:40:15.799Z,1001.179
2023-03-26T05:40:45.800Z,1001.183
2023-03-26T05:41:15.817Z,1001.191
2023-03-26T05:41:45.799Z,1001.189
2023-03-26T05:42:15.806Z,1001.2
2023-03-26T05:42:45.803Z,1001.21
2023-03-26T05:43:15.799Z,1001.217
2023-03-26T05:43:45.805Z,1001.228
2023-03-26T05:44:15.799Z,1001.223
2023-03-26T05:44:45.796Z,1001.237
2023-03-26T05:45:15.807Z,1001.239
2023-03-26T05:45:45.842Z,1001.232
2023-03-26T05:46:15.941Z,1001.227
2023-03-26T05:46:45.802Z,1001.229
2023-03-26T05:47:15.801Z,1001.247
2023-03-26T05:47:45.830Z,1001.263
2023-03-26T05:48:15.806Z,1001.267
2023-03-26T05:48:45.805Z,1001.275
2023-03-26T05:49:15.800Z,1001.264
2023-03-26T05:49:45.808Z,1001.247
2023-03-26T05:50:15.820Z,1001.225
2023-03-26T05:50:45.796Z,1001.216
2023-03-26T05:51:15.802Z,1001.217
2023-03-26T05:51:45.802Z,1001.219
2023-03-26T05:52:15.797Z,1001.213
2023-03-26T05:52:45.800Z,1001.198
2023-03-26T05:53:15.802Z,1001.179
2023-03-26T05:53:45.812Z,1001.165